Het weer levert geen direct gevaar op.    Er zijn geen waarschuwingen afgegeven.


Onweer radar Meer informatie blitzortung!


Regen radar Meer informatie rain snow radar


Bezoek onze andere website:

Template documentation
and downloads

And another site

Forum Leuven-template

EUWEATHER.EU

Verwachtingen Meteociel


U vindt ons ook hier:

Het Weer Aktueel

UK Metoffice

European Weather Network

WeatherCloud

Weather Underground

Benelux Weer Netwerk

AWEKAS

WeatherlinkIP

HAMweather, WeatherForYou, PWS Weather

Wetterpage 24

Wetter.com



METAR rapporten vliegvelden

   
EBAW - Antwerp
Gewijzigd: 16-12-2018 19:20
Nevel, Grotendeels bewolkt  
Nevel, Grotendeels bewolkt  
   Wind: Zuiden 11.1 km/h
Wind: Zuiden 11.1 km/h
Temperatuur: 4°C
Voelt als: 1°C
Dauwpunt: 4°C
Vochtigheid: 100%
Barometer: 1012 hPa
Bewolking: Grotendeels bewolkt
Zicht: 4 km
Bewolking: Grotendeels bewolkt 300 ft
EBAW 161820Z 19006KT 3600 BR BKN003 04/04 Q1012 NOSIG
EBLG - Li├Ęge
Gewijzigd: 16-12-2018 19:20
Nevel, Grotendeels bewolkt  
Nevel, Grotendeels bewolkt  
   Wind: Zuiden 18.5 km/h
Wind: Zuiden 18.5 km/h
Temperatuur: 3°C
Voelt als: -1°C
Dauwpunt: 2°C
Vochtigheid: 93%
Barometer: 1011 hPa
Bewolking: Grotendeels bewolkt
Zicht: 5 km
Bewolking: Gedeeltelijk bewolkt 200 ft,
Grotendeels bewolkt 300 ft
EBLG 161820Z 18010KT 4500 BR SCT002 BKN003 03/02 Q1011 TEMPO 3000 BR BKN002
EBCV - Mons/Bergen
Gewijzigd: 16-12-2018 19:25
Nevel, Bewolking  
Nevel, Bewolking  
   Wind: Zuiden 13 km/h
Wind: Zuiden 13 km/h
Temperatuur: 3°C
Voelt als: -1°C
Dauwpunt: 3°C
Vochtigheid: 100%
Barometer: 1012 hPa
Bewolking: Bewolking
Zicht: 4 km
Bewolking: Bewolking 200 ft
EBCV 161825Z AUTO 18007KT 4300 BR OVC002/// 03/03 Q1012 AMB
EHBK - Maastricht
Gewijzigd: 16-12-2018 19:25
Bewolking  
Bewolking  
   Wind: ZW 11.1 km/h
Wind: ZW 11.1 km/h
Temperatuur: 3°C
Voelt als: 0°C
Dauwpunt: 2°C
Vochtigheid: 93%
Barometer: 1012 hPa
Bewolking: Bewolking
Zicht: meer dan 10 km
Bewolking: Grotendeels bewolkt 700 ft,
Grotendeels bewolkt 900 ft,
Bewolking 1000 ft
EHBK 161825Z AUTO 23006KT 9999 BKN007 BKN009 OVC010 03/02 Q1012 TEMPO BKN004
ELLX - Luxemburg
Gewijzigd: 16-12-2018 19:20
Mist, Grotendeels bewolkt  
Mist, Grotendeels bewolkt  
   Wind: ZO 5.6 km/h
Wind: ZO 5.6 km/h
Temperatuur: 1°C
Voelt als: -1°C
Dauwpunt: 1°C
Vochtigheid: 100%
Barometer: 1013 hPa
Bewolking: Grotendeels bewolkt
Zicht: 0 km
Bewolking: Grotendeels bewolkt
ELLX 161820Z 14003KT 0250 R24/0650N FG BKN000 01/01 Q1013 NOSIG
EBOS - Oostende
Gewijzigd: 16-12-2018 19:20
Nevel, Grotendeels bewolkt  
Nevel, Grotendeels bewolkt  
   Wind: Zuiden 18.5 km/h
Wind: Zuiden 18.5 km/h
Temperatuur: 3°C
Voelt als: -1°C
Dauwpunt: 2°C
Vochtigheid: 93%
Barometer: 1010 hPa
Bewolking: Grotendeels bewolkt
Zicht: 1 km
Bewolking: Gedeeltelijk bewolkt 100 ft,
Grotendeels bewolkt 200 ft
EBOS 161820Z 17010KT 1100 R08/P2000N R26/P2000N BR SCT001 BKN002 03/02 Q1010 TEMPO 0600 FG BKN001

Script ontwikkeld door  Saratoga-weather.org Aangepast voor de template door  Weerstation Leuven

Apparatuur in gebruik:

Weerstation
Davis VP2

Weerprogramma
Meteobridge

Weercomputer
Asus WL -330N3G

Webleverancier
Onecom

Davis VP2

Meteobridge

Asus WL -330N3G

Onecom